createdAt,value
2022-08-05T00:00:26.687Z,8.65
2022-08-05T00:01:20.259Z,8.50
2022-08-05T00:01:55.570Z,8.60
2022-08-05T00:02:40.243Z,9.27
2022-08-05T00:03:16.128Z,8.90
2022-08-05T00:03:51.775Z,8.30
2022-08-05T00:04:24.008Z,8.07
2022-08-05T00:04:56.475Z,8.27
2022-08-05T00:06:05.647Z,8.00
2022-08-05T00:06:30.717Z,8.70
2022-08-05T00:07:21.825Z,8.63
2022-08-05T00:08:01.446Z,9.18
2022-08-05T00:08:35.398Z,9.07
2022-08-05T00:09:12.847Z,9.23
2022-08-05T00:09:45.524Z,7.80
2022-08-05T00:10:18.595Z,9.68
2022-08-05T00:10:53.309Z,9.18
2022-08-05T00:11:34.720Z,8.95
2022-08-05T00:12:13.008Z,8.70
2022-08-05T00:12:56.224Z,9.93
2022-08-05T00:13:38.147Z,8.60
2022-08-05T00:14:16.936Z,7.95
2022-08-05T00:14:51.715Z,9.90
2022-08-05T00:15:55.456Z,8.40
2022-08-05T00:16:20.249Z,8.32
2022-08-05T00:17:18.686Z,8.00
2022-08-05T00:17:52.442Z,8.55
2022-08-05T00:18:24.585Z,10.25
2022-08-05T00:18:59.352Z,8.70
2022-08-05T00:19:33.386Z,8.43
2022-08-05T00:20:20.424Z,10.25
2022-08-05T00:20:53.140Z,9.65
2022-08-05T00:21:25.283Z,8.55
2022-08-05T00:22:05.939Z,8.45
2022-08-05T00:22:38.582Z,8.85
2022-08-05T00:23:44.457Z,9.43
2022-08-05T00:24:16.099Z,9.25
2022-08-05T00:24:55.181Z,11.27
2022-08-05T00:25:27.509Z,9.25
2022-08-05T00:26:53.247Z,8.50
2022-08-05T00:27:28.393Z,8.60
2022-08-05T00:28:11.134Z,9.05
2022-08-05T00:28:45.732Z,8.32
2022-08-05T00:29:25.420Z,9.13
2022-08-05T00:29:57.965Z,9.80
2022-08-05T00:30:32.669Z,9.00
2022-08-05T00:31:08.592Z,9.70
2022-08-05T00:32:10.278Z,9.00
2022-08-05T00:32:37.800Z,8.93
2022-08-05T00:33:15.645Z,9.07
2022-08-05T00:34:55.634Z,9.75
2022-08-05T00:35:06.833Z,10.02
2022-08-05T00:35:48.002Z,8.63
2022-08-05T00:37:10.520Z,8.52
2022-08-05T00:37:35.467Z,9.40
2022-08-05T00:38:28.890Z,9.68
2022-08-05T00:39:13.789Z,9.20
2022-08-05T00:39:57.914Z,9.80
2022-08-05T00:40:33.976Z,10.68
2022-08-05T00:41:11.767Z,8.07
2022-08-05T00:41:54.997Z,9.23
2022-08-05T00:42:34.454Z,9.98
2022-08-05T00:43:07.665Z,9.93
2022-08-05T00:43:49.520Z,9.30
2022-08-05T00:44:30.892Z,8.85
2022-08-05T00:45:08.446Z,10.13
2022-08-05T00:45:44.249Z,9.35
2022-08-05T00:46:16.392Z,9.52
2022-08-05T00:46:54.252Z,8.82
2022-08-05T00:47:56.381Z,9.43
2022-08-05T00:48:31.382Z,9.45
2022-08-05T00:49:06.848Z,9.60
2022-08-05T00:49:51.045Z,9.77
2022-08-05T00:50:25.422Z,9.20
2022-08-05T00:51:00.548Z,10.50
2022-08-05T00:51:50.559Z,11.13
2022-08-05T00:52:28.654Z,9.93
2022-08-05T00:53:03.808Z,9.43
2022-08-05T00:54:02.702Z,10.45
2022-08-05T00:54:37.846Z,10.10
2022-08-05T00:55:10.143Z,11.43
2022-08-05T00:55:44.175Z,10.20
2022-08-05T00:56:22.807Z,8.55
2022-08-05T00:56:55.212Z,10.23
2022-08-05T00:57:38.148Z,9.77
2022-08-05T00:58:22.308Z,10.00
2022-08-05T00:59:00.231Z,9.52
2022-08-05T00:59:44.577Z,9.50
2022-08-05T01:00:17.780Z,9.75
2022-08-05T01:00:52.461Z,10.80
2022-08-05T01:01:42.605Z,9.55
2022-08-05T01:02:19.923Z,10.35
2022-08-05T01:02:57.479Z,9.15
2022-08-05T01:03:34.586Z,10.18
2022-08-05T01:04:13.960Z,9.27
2022-08-05T01:04:50.365Z,9.50
2022-08-05T01:05:23.197Z,9.65
2022-08-05T01:05:55.530Z,10.35
2022-08-05T01:06:32.506Z,9.40
2022-08-05T01:07:05.544Z,9.23
2022-08-05T01:07:38.123Z,8.70
2022-08-05T01:08:43.255Z,9.43
2022-08-05T01:09:19.841Z,11.57
2022-08-05T01:09:55.700Z,10.75
2022-08-05T01:10:33.532Z,10.15
2022-08-05T01:11:13.522Z,9.85
2022-08-05T01:11:51.736Z,10.07
2022-08-05T01:12:25.440Z,10.05
2022-08-05T01:13:13.365Z,9.20
2022-08-05T01:14:04.487Z,9.65
2022-08-05T01:14:48.889Z,11.32
2022-08-05T01:15:36.517Z,8.80
2022-08-05T01:16:21.058Z,10.85
2022-08-05T01:17:05.269Z,9.60
2022-08-05T01:17:46.402Z,10.00
2022-08-05T01:18:31.966Z,10.30
2022-08-05T01:19:15.944Z,9.68
2022-08-05T01:20:01.594Z,11.32
2022-08-05T01:20:50.217Z,9.55
2022-08-05T01:21:41.970Z,10.30
2022-08-05T01:22:47.185Z,10.88
2022-08-05T01:23:35.603Z,10.18
2022-08-05T01:24:24.302Z,10.50
2022-08-05T01:25:40.407Z,9.77
2022-08-05T01:26:38.219Z,11.75
2022-08-05T01:27:25.799Z,9.48
2022-08-05T01:28:27.312Z,10.70
2022-08-05T01:29:05.369Z,11.02
2022-08-05T01:29:44.407Z,10.55
2022-08-05T01:30:20.176Z,10.65
2022-08-05T01:31:11.518Z,10.88
2022-08-05T01:31:51.059Z,10.30
2022-08-05T01:32:27.819Z,10.65
2022-08-05T01:33:02.718Z,11.57
2022-08-05T01:33:42.386Z,10.38
2022-08-05T01:34:26.997Z,10.20
2022-08-05T01:35:03.108Z,11.07
2022-08-05T01:35:50.864Z,9.10
2022-08-05T01:36:29.657Z,10.25
2022-08-05T01:37:10.957Z,10.52
2022-08-05T01:37:59.456Z,10.55
2022-08-05T01:38:34.897Z,9.38
2022-08-05T01:39:10.567Z,9.75
2022-08-05T01:39:47.730Z,10.13
2022-08-05T01:40:27.961Z,11.55
2022-08-05T01:41:05.156Z,12.52
2022-08-05T01:41:44.480Z,10.95
2022-08-05T01:42:22.215Z,10.25
2022-08-05T01:42:56.996Z,10.00
2022-08-05T01:43:34.099Z,10.07
2022-08-05T01:44:11.291Z,10.05
2022-08-05T01:44:45.666Z,11.73
2022-08-05T01:45:27.966Z,10.77
2022-08-05T01:46:16.532Z,10.55
2022-08-05T01:47:05.100Z,10.63
2022-08-05T01:47:43.458Z,10.63
2022-08-05T01:48:18.418Z,11.82
2022-08-05T01:48:52.012Z,10.82
2022-08-05T01:50:01.862Z,10.00
2022-08-05T01:50:28.734Z,9.82
2022-08-05T01:51:12.484Z,10.20
2022-08-05T01:51:51.015Z,12.20
2022-08-05T01:52:28.629Z,11.13
2022-08-05T01:53:05.069Z,11.70
2022-08-05T01:53:57.606Z,10.43
2022-08-05T01:54:46.062Z,10.10
2022-08-05T01:55:22.737Z,11.25
2022-08-05T01:56:04.507Z,11.07
2022-08-05T01:58:11.776Z,11.60
2022-08-05T01:58:12.869Z,10.63
2022-08-05T01:58:40.782Z,10.90
2022-08-05T01:59:26.447Z,10.85
2022-08-05T02:00:02.148Z,11.27
2022-08-05T02:00:39.830Z,11.13
2022-08-05T02:01:23.300Z,11.45
2022-08-05T02:02:00.258Z,11.23
2022-08-05T02:02:37.321Z,10.80
2022-08-05T02:03:31.516Z,11.13
2022-08-05T02:04:05.832Z,11.27
2022-08-05T02:04:40.778Z,10.57
2022-08-05T02:05:17.829Z,10.73
2022-08-05T02:05:57.917Z,10.55
2022-08-05T02:06:38.420Z,12.13
2022-08-05T02:07:21.848Z,11.88
2022-08-05T02:08:00.167Z,11.13
2022-08-05T02:08:40.506Z,12.05
2022-08-05T02:09:29.632Z,11.73
2022-08-05T02:10:03.466Z,10.15
2022-08-05T02:10:40.890Z,11.38
2022-08-05T02:11:23.848Z,11.32
2022-08-05T02:12:03.497Z,11.40
2022-08-05T02:12:43.326Z,12.90
2022-08-05T02:13:21.938Z,10.93
2022-08-05T02:14:03.340Z,11.30
2022-08-05T02:14:47.105Z,11.20
2022-08-05T02:15:25.857Z,11.23
2022-08-05T02:16:16.432Z,10.68
2022-08-05T02:16:54.809Z,10.77
2022-08-05T02:18:31.343Z,10.57
2022-08-05T02:18:35.177Z,11.73
2022-08-05T02:19:14.549Z,10.63
2022-08-05T02:19:51.753Z,10.57
2022-08-05T02:20:29.572Z,11.05
2022-08-05T02:21:15.169Z,11.65
2022-08-05T02:22:01.352Z,10.02
2022-08-05T02:22:39.339Z,10.23
2022-08-05T02:23:53.037Z,10.07
2022-08-05T02:24:32.116Z,10.85
2022-08-05T02:25:12.490Z,10.43
2022-08-05T02:26:26.616Z,8.98
2022-08-05T02:27:10.203Z,10.23
2022-08-05T02:27:58.364Z,9.63
2022-08-05T02:28:38.422Z,11.88
2022-08-05T02:29:58.182Z,11.85
2022-08-05T02:30:17.814Z,9.95
2022-08-05T02:30:59.487Z,10.60
2022-08-05T02:31:35.821Z,8.88
2022-08-05T02:32:19.672Z,9.50
2022-08-05T02:32:58.163Z,9.90
2022-08-05T02:33:36.100Z,10.27
2022-08-05T02:34:12.042Z,9.90
2022-08-05T02:34:45.673Z,9.90
2022-08-05T02:35:33.293Z,10.10
2022-08-05T02:36:15.580Z,9.52
2022-08-05T02:36:54.451Z,8.60
2022-08-05T02:37:28.266Z,9.15
2022-08-05T02:38:05.500Z,8.82
2022-08-05T02:38:53.460Z,9.48
2022-08-05T02:39:29.807Z,10.57
2022-08-05T02:40:03.401Z,9.50
2022-08-05T02:40:41.457Z,9.05
2022-08-05T02:41:17.262Z,10.85
2022-08-05T02:42:00.572Z,9.32
2022-08-05T02:42:37.883Z,8.57
2022-08-05T02:43:13.087Z,9.30
2022-08-05T02:44:02.429Z,9.40
2022-08-05T02:44:47.120Z,8.98
2022-08-05T02:45:56.923Z,9.07
2022-08-05T02:46:36.349Z,8.05
2022-08-05T02:47:58.663Z,8.50
2022-08-05T02:48:29.171Z,9.43
2022-08-05T02:49:02.872Z,9.07
2022-08-05T02:49:40.381Z,8.80
2022-08-05T02:50:17.384Z,8.15
2022-08-05T02:50:51.938Z,9.85
2022-08-05T02:51:28.506Z,9.07
2022-08-05T02:52:30.095Z,8.63
2022-08-05T02:53:04.029Z,8.18
2022-08-05T02:53:39.721Z,9.43
2022-08-05T02:54:35.007Z,8.75
2022-08-05T02:55:10.832Z,9.40
2022-08-05T02:55:54.688Z,8.63
2022-08-05T02:56:36.042Z,8.40
2022-08-05T02:58:10.885Z,8.40
2022-08-05T02:58:11.605Z,8.63
2022-08-05T02:58:51.599Z,7.93
2022-08-05T02:59:27.726Z,8.88
2022-08-05T03:00:05.404Z,8.80
2022-08-05T03:00:39.231Z,8.45
2022-08-05T03:01:15.045Z,9.13
2022-08-05T03:01:58.199Z,8.95
2022-08-05T03:02:35.489Z,9.52
2022-08-05T03:03:10.261Z,8.57
2022-08-05T03:04:03.217Z,8.15
2022-08-05T03:04:39.443Z,8.18
2022-08-05T03:05:15.139Z,9.38
2022-08-05T03:06:54.659Z,8.82
2022-08-05T03:06:56.885Z,8.25
2022-08-05T03:08:00.506Z,9.15
2022-08-05T03:08:29.911Z,8.90
2022-08-05T03:09:02.735Z,8.27
2022-08-05T03:09:38.241Z,9.93
2022-08-05T03:10:13.823Z,9.80
2022-08-05T03:11:02.332Z,8.65
2022-08-05T03:11:54.487Z,9.40
2022-08-05T03:12:30.250Z,9.68
2022-08-05T03:13:51.499Z,8.80
2022-08-05T03:14:28.694Z,9.35
2022-08-05T03:15:06.844Z,10.27
2022-08-05T03:15:44.942Z,9.70
2022-08-05T03:16:17.244Z,10.30
2022-08-05T03:16:53.380Z,10.25
2022-08-05T03:17:28.393Z,8.93
2022-08-05T03:18:00.793Z,9.85
2022-08-05T03:18:33.334Z,9.07
2022-08-05T03:19:17.179Z,8.52
2022-08-05T03:20:00.935Z,10.00
2022-08-05T03:20:33.281Z,11.35
2022-08-05T03:21:09.079Z,9.15
2022-08-05T03:21:48.636Z,10.32
2022-08-05T03:22:32.523Z,10.50
2022-08-05T03:23:09.488Z,10.70
2022-08-05T03:23:45.653Z,9.38
2022-08-05T03:24:29.529Z,8.30
2022-08-05T03:25:34.054Z,11.07
2022-08-05T03:26:04.288Z,11.23
2022-08-05T03:26:53.059Z,10.35
2022-08-05T03:27:29.795Z,10.18
2022-08-05T03:28:14.504Z,9.30
2022-08-05T03:28:51.291Z,10.60
2022-08-05T03:29:24.008Z,9.88
2022-08-05T03:30:08.493Z,9.88
2022-08-05T03:30:44.856Z,10.45
2022-08-05T03:31:55.608Z,9.88
2022-08-05T03:32:15.694Z,11.38
2022-08-05T03:32:48.022Z,10.30
2022-08-05T03:33:20.939Z,10.70
2022-08-05T03:33:56.916Z,8.98
2022-08-05T03:34:29.312Z,10.52
2022-08-05T03:35:04.480Z,10.77
2022-08-05T03:35:41.840Z,11.02
2022-08-05T03:36:14.276Z,12.35
2022-08-05T03:36:49.022Z,10.25
2022-08-05T03:37:25.417Z,10.40
2022-08-05T03:37:58.440Z,9.35
2022-08-05T03:38:37.533Z,10.68
2022-08-05T03:39:19.913Z,10.35
2022-08-05T03:40:05.067Z,9.55
2022-08-05T03:40:40.475Z,10.32
2022-08-05T03:41:12.804Z,10.65
2022-08-05T03:41:47.697Z,11.73
2022-08-05T03:42:27.087Z,16.52
2022-08-05T03:43:15.702Z,12.75
2022-08-05T03:44:08.853Z,10.90
2022-08-05T03:44:43.801Z,11.40
2022-08-05T03:45:21.971Z,9.80
2022-08-05T03:46:00.364Z,9.85
2022-08-05T03:46:32.744Z,10.63
2022-08-05T03:47:05.375Z,9.50
2022-08-05T03:47:41.995Z,10.75
2022-08-05T03:48:14.290Z,11.45
2022-08-05T03:48:56.689Z,9.70
2022-08-05T03:49:30.962Z,11.88
2022-08-05T03:50:21.256Z,11.65
2022-08-05T03:52:38.731Z,10.40
2022-08-05T03:52:48.779Z,11.07
2022-08-05T03:55:07.001Z,11.32
2022-08-05T03:55:51.689Z,13.80
2022-08-05T03:55:52.078Z,10.18
2022-08-05T03:56:10.299Z,10.95
2022-08-05T03:56:50.312Z,11.05
2022-08-05T03:57:41.844Z,12.02
2022-08-05T03:58:20.785Z,10.48
2022-08-05T03:59:06.627Z,10.73
2022-08-05T03:59:54.466Z,10.65
2022-08-05T04:00:30.025Z,10.85
2022-08-05T04:01:08.062Z,10.38
2022-08-05T04:01:51.030Z,10.55
2022-08-05T04:02:34.810Z,9.93
2022-08-05T04:03:15.053Z,11.23
2022-08-05T04:04:09.040Z,9.35
2022-08-05T04:04:44.895Z,9.02
2022-08-05T04:05:18.490Z,10.77
2022-08-05T04:05:53.745Z,10.70
2022-08-05T04:06:26.819Z,10.23
2022-08-05T04:07:01.941Z,10.13
2022-08-05T04:07:58.161Z,9.20
2022-08-05T04:08:36.269Z,10.15
2022-08-05T04:09:12.570Z,11.63
2022-08-05T04:09:53.676Z,11.23
2022-08-05T04:10:28.170Z,9.70
2022-08-05T04:11:07.534Z,10.90
2022-08-05T04:11:50.906Z,10.77
2022-08-05T04:12:27.690Z,10.70
2022-08-05T04:13:03.431Z,11.23
2022-08-05T04:13:50.872Z,10.82
2022-08-05T04:14:30.663Z,9.68
2022-08-05T04:15:03.852Z,10.20
2022-08-05T04:15:36.771Z,10.00
2022-08-05T04:16:16.010Z,9.00
2022-08-05T04:16:57.773Z,10.30
2022-08-05T04:17:55.658Z,9.82
2022-08-05T04:18:27.134Z,9.40
2022-08-05T04:19:00.070Z,10.13
2022-08-05T04:19:41.602Z,9.88
2022-08-05T04:20:24.881Z,9.68
2022-08-05T04:20:58.081Z,11.30
2022-08-05T04:22:08.392Z,9.77
2022-08-05T04:22:25.288Z,10.43
2022-08-05T04:22:58.773Z,10.82
2022-08-05T04:23:57.165Z,9.60
2022-08-05T04:24:27.623Z,10.05
2022-08-05T04:25:00.021Z,9.30
2022-08-05T04:25:56.759Z,11.18
2022-08-05T04:26:32.275Z,10.50
2022-08-05T04:27:05.181Z,10.75
2022-08-05T04:27:41.734Z,10.55
2022-08-05T04:28:17.228Z,11.00
2022-08-05T04:28:50.768Z,9.90
2022-08-05T04:29:26.464Z,10.20
2022-08-05T04:29:59.634Z,9.48
2022-08-05T04:30:36.160Z,9.23
2022-08-05T04:31:11.092Z,11.35
2022-08-05T04:31:48.359Z,11.75
2022-08-05T04:32:31.161Z,11.68
2022-08-05T04:33:08.116Z,10.18
2022-08-05T04:34:17.302Z,10.40
2022-08-05T04:34:38.512Z,11.00
2022-08-05T04:35:19.570Z,11.38
2022-08-05T04:36:16.417Z,11.02
2022-08-05T04:36:50.228Z,9.50
2022-08-05T04:38:01.373Z,8.82
2022-08-05T04:38:17.698Z,9.60
2022-08-05T04:38:52.853Z,10.65
2022-08-05T04:39:25.161Z,10.50
2022-08-05T04:39:59.950Z,10.70
2022-08-05T04:40:36.579Z,11.07
2022-08-05T04:41:09.492Z,10.38
2022-08-05T04:41:42.386Z,9.38
2022-08-05T04:42:19.141Z,10.73
2022-08-05T04:42:57.665Z,10.02
2022-08-05T04:43:32.500Z,9.80
2022-08-05T04:44:09.303Z,9.82
2022-08-05T04:44:42.255Z,9.07
2022-08-05T04:45:22.942Z,8.95
2022-08-05T04:46:05.006Z,9.90
2022-08-05T04:46:37.972Z,10.35
2022-08-05T04:47:20.419Z,9.82
2022-08-05T04:47:52.849Z,9.73
2022-08-05T04:48:27.862Z,10.95
2022-08-05T04:49:00.485Z,9.98
2022-08-05T04:49:38.782Z,10.45
2022-08-05T04:50:37.289Z,10.80
2022-08-05T04:51:12.766Z,9.82
2022-08-05T04:51:45.794Z,11.05
2022-08-05T04:52:19.537Z,10.90
2022-08-05T04:52:54.220Z,9.88
2022-08-05T04:53:26.351Z,9.90
2022-08-05T04:54:05.851Z,11.57
2022-08-05T04:54:40.616Z,11.48
2022-08-05T04:55:15.058Z,11.10
2022-08-05T04:56:11.903Z,10.05
2022-08-05T04:56:42.487Z,9.60
2022-08-05T04:57:15.970Z,8.63
2022-08-05T04:57:51.528Z,12.07
2022-08-05T04:58:28.621Z,9.68
2022-08-05T04:59:22.160Z,10.30
2022-08-05T04:59:54.430Z,10.88
2022-08-05T05:00:29.582Z,13.15
2022-08-05T05:01:02.396Z,10.55
2022-08-05T05:02:08.231Z,9.98
2022-08-05T05:02:36.679Z,12.05
2022-08-05T05:03:12.386Z,10.88
2022-08-05T05:03:50.911Z,11.35
2022-08-05T05:04:25.702Z,10.30
2022-08-05T05:05:03.105Z,11.30
2022-08-05T05:06:39.381Z,11.40
2022-08-05T05:06:40.671Z,10.85
2022-08-05T05:07:29.215Z,13.98
2022-08-05T05:08:04.113Z,18.85
2022-08-05T05:08:37.258Z,14.93
2022-08-05T05:09:18.478Z,10.82
2022-08-05T05:09:52.177Z,9.82
2022-08-05T05:10:26.199Z,9.60
2022-08-05T05:11:04.425Z,10.77
2022-08-05T05:11:42.162Z,11.30
2022-08-05T05:12:29.312Z,10.88
2022-08-05T05:13:04.141Z,11.70
2022-08-05T05:13:43.183Z,11.35
2022-08-05T05:14:18.503Z,10.48
2022-08-05T05:15:05.290Z,12.63
2022-08-05T05:15:59.141Z,11.45
2022-08-05T05:16:38.244Z,13.55
2022-08-05T05:17:14.310Z,11.30
2022-08-05T05:17:57.179Z,11.77
2022-08-05T05:18:33.917Z,10.93
2022-08-05T05:19:23.699Z,11.07
2022-08-05T05:19:59.992Z,11.95
2022-08-05T05:20:32.913Z,11.85
2022-08-05T05:21:07.920Z,9.15
2022-08-05T05:21:41.889Z,11.02
2022-08-05T05:22:24.669Z,11.65
2022-08-05T05:23:08.423Z,10.75
2022-08-05T05:24:02.981Z,11.70
2022-08-05T05:24:57.319Z,10.52
2022-08-05T05:26:15.912Z,10.70
2022-08-05T05:26:48.225Z,10.98
2022-08-05T05:27:24.448Z,13.25
2022-08-05T05:28:17.003Z,12.27
2022-08-05T05:28:49.251Z,12.60
2022-08-05T05:29:21.434Z,10.05
2022-08-05T05:30:04.049Z,12.65
2022-08-05T05:30:37.519Z,10.48
2022-08-05T05:31:12.299Z,11.85
2022-08-05T05:31:46.248Z,10.77
2022-08-05T05:32:18.810Z,10.93
2022-08-05T05:33:00.815Z,11.10
2022-08-05T05:33:58.774Z,12.60
2022-08-05T05:34:30.539Z,12.40
2022-08-05T05:35:03.201Z,10.27
2022-08-05T05:35:37.877Z,11.57
2022-08-05T05:36:14.705Z,11.70
2022-08-05T05:36:48.210Z,9.52
2022-08-05T05:37:23.646Z,10.73
2022-08-05T05:38:13.451Z,12.68
2022-08-05T05:38:46.235Z,10.20
2022-08-05T05:39:19.405Z,12.45
2022-08-05T05:39:54.498Z,11.35
2022-08-05T05:40:27.537Z,14.20
2022-08-05T05:41:02.898Z,12.85
2022-08-05T05:41:40.416Z,11.77
2022-08-05T05:42:16.476Z,12.15
2022-08-05T05:42:53.469Z,9.82
2022-08-05T05:43:56.488Z,11.85
2022-08-05T05:44:36.812Z,10.98
2022-08-05T05:45:14.243Z,11.23
2022-08-05T05:45:49.051Z,12.95
2022-08-05T05:46:21.769Z,12.02
2022-08-05T05:46:54.105Z,12.15
2022-08-05T05:48:06.035Z,12.43
2022-08-05T05:48:27.368Z,10.70
2022-08-05T05:49:06.395Z,13.15
2022-08-05T05:49:45.197Z,13.85
2022-08-05T05:50:31.445Z,12.90
2022-08-05T05:51:15.669Z,12.80
2022-08-05T05:51:51.196Z,12.93
2022-08-05T05:52:29.985Z,15.80
2022-08-05T05:53:21.226Z,12.43
2022-08-05T05:53:58.604Z,13.20
2022-08-05T05:54:49.763Z,12.52
2022-08-05T05:55:51.655Z,12.85
2022-08-05T05:56:25.858Z,12.00
2022-08-05T05:57:13.859Z,12.85
2022-08-05T05:57:52.835Z,12.27
2022-08-05T05:58:30.286Z,12.85
2022-08-05T05:59:06.948Z,14.48
2022-08-05T05:59:40.191Z,12.25
2022-08-05T06:00:18.505Z,12.65
2022-08-05T06:00:50.981Z,12.63
2022-08-05T06:01:23.578Z,13.80
2022-08-05T06:01:58.326Z,10.52
2022-08-05T06:02:32.859Z,12.55
2022-08-05T06:03:40.063Z,14.90
2022-08-05T06:04:07.769Z,13.60
2022-08-05T06:04:40.068Z,13.18
2022-08-05T06:05:16.628Z,14.10
2022-08-05T06:05:54.256Z,12.85
2022-08-05T06:06:31.284Z,13.30
2022-08-05T06:07:08.371Z,13.07
2022-08-05T06:07:43.346Z,13.55
2022-08-05T06:08:36.153Z,13.23
2022-08-05T06:09:16.949Z,13.35
2022-08-05T06:10:04.356Z,13.27
2022-08-05T06:10:52.493Z,13.30
2022-08-05T06:11:29.048Z,12.10
2022-08-05T06:12:02.698Z,14.13
2022-08-05T06:12:36.101Z,12.95
2022-08-05T06:13:17.014Z,13.77
2022-08-05T06:13:50.458Z,11.98
2022-08-05T06:14:28.037Z,14.10
2022-08-05T06:15:04.286Z,14.35
2022-08-05T06:16:30.124Z,14.30
2022-08-05T06:16:36.804Z,15.82
2022-08-05T06:17:21.990Z,13.85
2022-08-05T06:17:57.551Z,14.50
2022-08-05T06:18:31.009Z,14.85
2022-08-05T06:19:07.206Z,13.93
2022-08-05T06:19:43.088Z,15.98
2022-08-05T06:20:28.596Z,15.02
2022-08-05T06:21:00.873Z,14.02
2022-08-05T06:21:37.458Z,14.80
2022-08-05T06:22:10.647Z,13.65
2022-08-05T06:22:42.955Z,14.63
2022-08-05T06:23:17.785Z,14.57
2022-08-05T06:23:49.952Z,13.77
2022-08-05T06:24:25.746Z,14.55
2022-08-05T06:25:25.028Z,14.60
2022-08-05T06:26:12.975Z,17.08
2022-08-05T06:26:52.128Z,19.40
2022-08-05T06:28:11.370Z,14.75
2022-08-05T06:28:21.406Z,14.35
2022-08-05T06:28:54.120Z,15.63
2022-08-05T06:29:49.520Z,14.48
2022-08-05T06:30:21.499Z,14.93
2022-08-05T06:30:53.935Z,16.10
2022-08-05T06:31:30.453Z,17.70
2022-08-05T06:32:05.044Z,17.92
2022-08-05T06:32:56.589Z,18.42
2022-08-05T06:33:33.311Z,17.27
2022-08-05T06:34:26.577Z,19.83
2022-08-05T06:35:00.072Z,17.10
2022-08-05T06:36:07.297Z,19.33
2022-08-05T06:36:53.482Z,14.82
2022-08-05T06:37:56.182Z,14.90
2022-08-05T06:38:35.899Z,14.45
2022-08-05T06:39:11.708Z,14.10
2022-08-05T06:39:45.214Z,15.43
2022-08-05T06:40:18.203Z,14.00
2022-08-05T06:40:56.211Z,14.75
2022-08-05T06:41:28.922Z,14.48
2022-08-05T06:42:07.268Z,14.07
2022-08-05T06:42:42.421Z,14.50
2022-08-05T06:43:57.925Z,15.35
2022-08-05T06:44:07.280Z,15.32
2022-08-05T06:44:42.201Z,14.23
2022-08-05T06:45:20.802Z,16.85
2022-08-05T06:46:06.575Z,14.88
2022-08-05T06:46:39.703Z,15.40
2022-08-05T06:47:30.021Z,15.07
2022-08-05T06:48:37.045Z,15.30
2022-08-05T06:49:04.632Z,15.13
2022-08-05T06:49:59.892Z,13.95
2022-08-05T06:50:36.974Z,16.60
2022-08-05T06:51:09.668Z,14.25
2022-08-05T06:51:42.409Z,16.63
2022-08-05T06:52:37.758Z,17.35
2022-08-05T06:53:19.597Z,15.40
2022-08-05T06:54:03.420Z,14.63
2022-08-05T06:54:35.962Z,13.93
2022-08-05T06:55:09.160Z,17.25
2022-08-05T06:55:44.694Z,17.42
2022-08-05T06:56:26.481Z,15.40
2022-08-05T06:57:56.579Z,14.63
2022-08-05T06:58:03.375Z,15.38
2022-08-05T06:58:48.621Z,17.20
2022-08-05T06:59:23.414Z,16.13
2022-08-05T06:59:58.290Z,16.50
2022-08-05T07:00:31.486Z,15.38
2022-08-05T07:01:07.701Z,17.45
2022-08-05T07:01:40.705Z,17.77
2022-08-05T07:02:14.828Z,17.15
2022-08-05T07:02:53.445Z,17.55
2022-08-05T07:03:28.124Z,16.90
2022-08-05T07:04:07.575Z,15.32
2022-08-05T07:04:42.311Z,14.52
2022-08-05T07:05:18.633Z,15.23
2022-08-05T07:05:54.384Z,15.82
2022-08-05T07:06:29.527Z,15.20
2022-08-05T07:07:01.729Z,14.85
2022-08-05T07:07:43.919Z,14.70
2022-08-05T07:08:19.500Z,15.23
2022-08-05T07:08:54.983Z,15.75
2022-08-05T07:09:32.346Z,15.85
2022-08-05T07:10:14.817Z,17.73
2022-08-05T07:10:53.279Z,17.20
2022-08-05T07:11:28.069Z,15.00
2022-08-05T07:12:02.953Z,16.83
2022-08-05T07:12:51.135Z,14.95
2022-08-05T07:13:56.806Z,18.27
2022-08-05T07:14:46.038Z,18.80
2022-08-05T07:15:34.399Z,15.82
2022-08-05T07:17:58.777Z,19.10
2022-08-05T07:18:00.755Z,19.63
2022-08-05T07:18:29.061Z,18.70
2022-08-05T07:19:02.490Z,18.67
2022-08-05T07:20:23.010Z,18.45
2022-08-05T07:20:37.004Z,18.23
2022-08-05T07:21:13.408Z,17.85
2022-08-05T07:21:59.855Z,16.27
2022-08-05T07:22:36.016Z,19.70
2022-08-05T07:23:08.192Z,18.80
2022-08-05T07:23:49.857Z,18.80
2022-08-05T07:24:28.768Z,16.85
2022-08-05T07:25:22.064Z,18.02
2022-08-05T07:25:57.224Z,18.83
2022-08-05T07:26:29.525Z,18.70
2022-08-05T07:27:03.569Z,16.70
2022-08-05T07:27:58.740Z,18.70
2022-08-05T07:28:34.922Z,19.42
2022-08-05T07:29:10.209Z,18.10
2022-08-05T07:30:25.542Z,18.70
2022-08-05T07:30:38.693Z,18.23
2022-08-05T07:31:14.323Z,17.30
2022-08-05T07:31:54.558Z,18.67
2022-08-05T07:32:30.140Z,20.17
2022-08-05T07:33:08.854Z,18.95
2022-08-05T07:33:44.516Z,17.05
2022-08-05T07:34:16.878Z,18.42
2022-08-05T07:34:57.927Z,18.90
2022-08-05T07:36:01.877Z,17.15
2022-08-05T07:36:28.546Z,16.50
2022-08-05T07:37:04.446Z,20.38
2022-08-05T07:37:37.517Z,17.20
2022-08-05T07:38:12.271Z,16.75
2022-08-05T07:39:00.255Z,16.08
2022-08-05T07:40:04.339Z,15.73
2022-08-05T07:40:32.282Z,16.38
2022-08-05T07:42:06.730Z,18.00
2022-08-05T07:42:08.167Z,16.52
2022-08-05T07:42:44.046Z,16.73
2022-08-05T07:43:20.902Z,17.20
2022-08-05T07:43:56.208Z,18.23
2022-08-05T07:44:31.543Z,15.98
2022-08-05T07:45:09.318Z,15.70
2022-08-05T07:45:57.040Z,15.98
2022-08-05T07:46:31.935Z,16.15
2022-08-05T07:47:10.174Z,15.43
2022-08-05T07:47:47.293Z,15.75
2022-08-05T07:49:01.398Z,16.13
2022-08-05T07:49:18.210Z,16.58
2022-08-05T07:49:54.320Z,17.20
2022-08-05T07:50:32.369Z,16.00
2022-08-05T07:51:23.450Z,16.25
2022-08-05T07:52:03.419Z,19.58
2022-08-05T07:52:41.649Z,17.52
2022-08-05T07:53:16.606Z,18.20
2022-08-05T07:53:50.389Z,15.82
2022-08-05T07:54:31.446Z,15.63
2022-08-05T07:55:44.044Z,16.55
2022-08-05T07:56:06.577Z,15.32
2022-08-05T07:57:01.451Z,17.17
2022-08-05T07:57:55.159Z,15.65
2022-08-05T07:58:57.516Z,15.82
2022-08-05T07:59:38.691Z,14.43
2022-08-05T08:00:17.258Z,17.15
2022-08-05T08:00:50.292Z,15.63
2022-08-05T08:01:25.372Z,18.33
2022-08-05T08:02:05.194Z,17.15
2022-08-05T08:03:13.960Z,16.23
2022-08-05T08:03:44.622Z,15.38
2022-08-05T08:04:17.291Z,17.17
2022-08-05T08:05:09.727Z,15.65
2022-08-05T08:05:49.635Z,18.30
2022-08-05T08:06:28.199Z,15.25
2022-08-05T08:07:05.479Z,15.13
2022-08-05T08:08:00.201Z,16.23
2022-08-05T08:08:34.087Z,17.05
2022-08-05T08:09:06.425Z,15.13
2022-08-05T08:09:38.982Z,17.90
2022-08-05T08:10:13.899Z,17.05
2022-08-05T08:10:55.683Z,16.73
2022-08-05T08:11:53.572Z,16.30
2022-08-05T08:12:37.319Z,17.00
2022-08-05T08:13:22.026Z,15.68
2022-08-05T08:14:01.577Z,16.67
2022-08-05T08:14:36.390Z,16.48
2022-08-05T08:15:15.623Z,16.88
2022-08-05T08:16:35.232Z,17.05
2022-08-05T08:16:51.037Z,17.63
2022-08-05T08:18:05.942Z,17.25
2022-08-05T08:18:42.999Z,16.48
2022-08-05T08:20:10.743Z,16.15
2022-08-05T08:20:43.455Z,16.08
2022-08-05T08:21:15.731Z,15.68
2022-08-05T08:21:53.307Z,16.02
2022-08-05T08:22:27.111Z,18.77
2022-08-05T08:23:03.104Z,15.95
2022-08-05T08:24:02.488Z,14.98
2022-08-05T08:24:51.660Z,15.52
2022-08-05T08:26:00.808Z,16.15
2022-08-05T08:26:29.546Z,14.45
2022-08-05T08:27:06.862Z,16.60
2022-08-05T08:27:44.716Z,14.02
2022-08-05T08:28:35.655Z,14.32
2022-08-05T08:29:45.357Z,18.38
2022-08-05T08:30:19.103Z,15.77
2022-08-05T08:30:56.658Z,15.05
2022-08-05T08:31:32.989Z,15.43
2022-08-05T08:32:05.223Z,16.08
2022-08-05T08:32:43.575Z,14.50
2022-08-05T08:33:19.110Z,17.27
2022-08-05T08:33:53.193Z,15.50
2022-08-05T08:34:30.367Z,17.80
2022-08-05T08:35:07.500Z,15.65
2022-08-05T08:35:52.674Z,15.07
2022-08-05T08:36:48.856Z,17.50
2022-08-05T08:37:27.831Z,15.82
2022-08-05T08:38:02.988Z,14.15
2022-08-05T08:38:37.754Z,14.07
2022-08-05T08:39:15.013Z,14.32
2022-08-05T08:39:50.674Z,14.30
2022-08-05T08:40:23.039Z,16.15
2022-08-05T08:40:56.719Z,14.68
2022-08-05T08:41:50.646Z,16.30
2022-08-05T08:42:34.332Z,15.77
2022-08-05T08:45:18.096Z,15.52
2022-08-05T08:45:19.347Z,14.98
2022-08-05T08:45:22.543Z,14.52
2022-08-05T08:45:59.420Z,14.35
2022-08-05T08:46:33.006Z,15.80
2022-08-05T08:47:21.633Z,20.55
2022-08-05T08:48:22.586Z,16.15
2022-08-05T08:50:05.840Z,15.80
2022-08-05T08:50:22.300Z,17.00
2022-08-05T08:51:03.599Z,16.88
2022-08-05T08:52:05.770Z,14.95
2022-08-05T08:52:51.701Z,14.73
2022-08-05T08:53:27.540Z,14.90
2022-08-05T08:54:03.655Z,16.25
2022-08-05T08:54:36.733Z,17.05